DLH2CL EDDM-EDDH
Flight info
| Callsign | DLH2CL |
|---|---|
| Flight time | 1h 7m |
| Altitude | 36000 |
| Route | INPUD2S INPUD Y102 UPALA M726 NARUS DCT ABGUS DCT DIRBO/N0383F230 T902 RARUP RARUP6A |
| Aircraft | A320/M-SDE3FGHIRWY/LB1 |
Departure
| Time | 2026-05-07 18:35 |
|---|---|
| Airport | Munich Airport (EDDM) |
Arrival
| Time | 2026-05-07 19:42 |
|---|---|
| Airport | Hamburg Helmut Schmidt Airport (EDDH) |
| Time | Latitude | Longitude | Altitude | Speed | Heading |
|---|---|---|---|---|---|
| 2026-05-07 18:03 | 48.35635 | 11.79266 | 1467 ft | 0 kts | 263° |
| 2026-05-07 18:18 | 48.35635 | 11.79268 | 1467 ft | 2 kts | 263° |
| 2026-05-07 18:18 | 48.35637 | 11.79293 | 1459 ft | 2 kts | 268° |
| 2026-05-07 18:18 | 48.35638 | 11.79317 | 1464 ft | 2 kts | 270° |
| 2026-05-07 18:19 | 48.35638 | 11.79341 | 1461 ft | 2 kts | 274° |
| 2026-05-07 18:19 | 48.35636 | 11.79366 | 1461 ft | 2 kts | 281° |
| 2026-05-07 18:19 | 48.35632 | 11.79390 | 1459 ft | 2 kts | 295° |
| 2026-05-07 18:19 | 48.35624 | 11.79411 | 1456 ft | 2 kts | 317° |
| 2026-05-07 18:20 | 48.35610 | 11.79425 | 1458 ft | 2 kts | 342° |
| 2026-05-07 18:20 | 48.35599 | 11.79430 | 1460 ft | 1 kts | 353° |
| 2026-05-07 18:20 | 48.35598 | 11.79430 | 1460 ft | 0 kts | 353° |
| 2026-05-07 18:22 | 48.35599 | 11.79430 | 1460 ft | 1 kts | 353° |
| 2026-05-07 18:23 | 48.35624 | 11.79435 | 1462 ft | 7 kts | 17° |
| 2026-05-07 18:23 | 48.35680 | 11.79481 | 1465 ft | 10 kts | 24° |
| 2026-05-07 18:23 | 48.35751 | 11.79520 | 1467 ft | 11 kts | 15° |
| 2026-05-07 18:23 | 48.35833 | 11.79526 | 1467 ft | 13 kts | 354° |
| 2026-05-07 18:24 | 48.35904 | 11.79514 | 1459 ft | 0 kts | 353° |
| 2026-05-07 18:26 | 48.35935 | 11.79509 | 1467 ft | 9 kts | 353° |
| 2026-05-07 18:26 | 48.36000 | 11.79498 | 1463 ft | 9 kts | 353° |
| 2026-05-07 18:26 | 48.36064 | 11.79489 | 1467 ft | 9 kts | 2° |
| 2026-05-07 18:27 | 48.36110 | 11.79510 | 1465 ft | 3 kts | 324° |
| 2026-05-07 18:27 | 48.36122 | 11.79493 | 1463 ft | 4 kts | 319° |
| 2026-05-07 18:27 | 48.36166 | 11.79471 | 1468 ft | 8 kts | 357° |
| 2026-05-07 18:27 | 48.36216 | 11.79527 | 1464 ft | 13 kts | 72° |
| 2026-05-07 18:28 | 48.36229 | 11.79669 | 1468 ft | 14 kts | 84° |
| 2026-05-07 18:28 | 48.36242 | 11.79842 | 1465 ft | 19 kts | 83° |
| 2026-05-07 18:28 | 48.36258 | 11.80052 | 1468 ft | 21 kts | 83° |
| 2026-05-07 18:28 | 48.36276 | 11.80277 | 1463 ft | 22 kts | 83° |
| 2026-05-07 18:29 | 48.36295 | 11.80514 | 1460 ft | 23 kts | 83° |
| 2026-05-07 18:29 | 48.36313 | 11.80764 | 1465 ft | 25 kts | 84° |
| 2026-05-07 18:29 | 48.36334 | 11.81025 | 1467 ft | 26 kts | 83° |
| 2026-05-07 18:29 | 48.36354 | 11.81288 | 1460 ft | 25 kts | 83° |
| 2026-05-07 18:30 | 48.36374 | 11.81556 | 1464 ft | 26 kts | 83° |
| 2026-05-07 18:30 | 48.36395 | 11.81828 | 1463 ft | 27 kts | 83° |
| 2026-05-07 18:30 | 48.36414 | 11.81994 | 1462 ft | 13 kts | 49° |
| 2026-05-07 18:30 | 48.36504 | 11.82000 | 1466 ft | 12 kts | 353° |
| 2026-05-07 18:31 | 48.36531 | 11.81996 | 1457 ft | 0 kts | 353° |
| 2026-05-07 18:33 | 48.36532 | 11.81996 | 1457 ft | 1 kts | 353° |
| 2026-05-07 18:33 | 48.36581 | 11.81986 | 1466 ft | 10 kts | 352° |
| 2026-05-07 18:34 | 48.36653 | 11.81968 | 1464 ft | 10 kts | 343° |
| 2026-05-07 18:34 | 48.36672 | 11.81879 | 1466 ft | 9 kts | 262° |
| 2026-05-07 18:34 | 48.36660 | 11.81743 | 1466 ft | 24 kts | 262° |
| 2026-05-07 18:34 | 48.36612 | 11.81095 | 1463 ft | 97 kts | 264° |
| 2026-05-07 18:35 | 48.36512 | 11.79778 | 1464 ft | 154 kts | 263° |
| 2026-05-07 18:35 | 48.36377 | 11.78033 | 1814 ft | 168 kts | 265° |
| 2026-05-07 18:35 | 48.36248 | 11.76310 | 2557 ft | 165 kts | 265° |
| 2026-05-07 18:35 | 48.36106 | 11.74556 | 3071 ft | 178 kts | 265° |
| 2026-05-07 18:36 | 48.35961 | 11.72614 | 3436 ft | 195 kts | 265° |
| 2026-05-07 18:36 | 48.35815 | 11.70505 | 3820 ft | 212 kts | 265° |
| 2026-05-07 18:36 | 48.35705 | 11.68178 | 4222 ft | 228 kts | 275° |
| 2026-05-07 18:36 | 48.36252 | 11.65967 | 4982 ft | 233 kts | 310° |
| 2026-05-07 18:37 | 48.37662 | 11.64565 | 5393 ft | 258 kts | 340° |
| 2026-05-07 18:37 | 48.39431 | 11.63976 | 6095 ft | 269 kts | 350° |
| 2026-05-07 18:37 | 48.41340 | 11.63652 | 6777 ft | 275 kts | 352° |
| 2026-05-07 18:37 | 48.43219 | 11.63367 | 6989 ft | 275 kts | 351° |
| 2026-05-07 18:38 | 48.45140 | 11.63018 | 7048 ft | 275 kts | 349° |
| 2026-05-07 18:38 | 48.47005 | 11.62604 | 7057 ft | 274 kts | 348° |
| 2026-05-07 18:38 | 48.48891 | 11.62121 | 7061 ft | 274 kts | 347° |
| 2026-05-07 18:38 | 48.50759 | 11.61603 | 7061 ft | 272 kts | 346° |
| 2026-05-07 18:39 | 48.52621 | 11.61063 | 7060 ft | 272 kts | 345° |
| 2026-05-07 18:39 | 48.54477 | 11.60516 | 7061 ft | 272 kts | 345° |
| 2026-05-07 18:39 | 48.56353 | 11.59933 | 7457 ft | 277 kts | 341° |
| 2026-05-07 18:39 | 48.58156 | 11.58971 | 8391 ft | 275 kts | 336° |
| 2026-05-07 18:40 | 48.59957 | 11.57946 | 9248 ft | 278 kts | 335° |
| 2026-05-07 18:40 | 48.61787 | 11.56894 | 10068 ft | 283 kts | 335° |
| 2026-05-07 18:40 | 48.63671 | 11.55804 | 10488 ft | 301 kts | 335° |
| 2026-05-07 18:40 | 48.65754 | 11.54817 | 10733 ft | 327 kts | 346° |
| 2026-05-07 18:41 | 48.68046 | 11.54284 | 11293 ft | 337 kts | 348° |
| 2026-05-07 18:41 | 48.70384 | 11.53763 | 11995 ft | 342 kts | 348° |
| 2026-05-07 18:41 | 48.72761 | 11.53243 | 12732 ft | 346 kts | 349° |
| 2026-05-07 18:41 | 48.75151 | 11.52725 | 13487 ft | 349 kts | 349° |
| 2026-05-07 18:42 | 48.77561 | 11.52198 | 14165 ft | 353 kts | 349° |
| 2026-05-07 18:42 | 48.79994 | 11.51663 | 14826 ft | 355 kts | 348° |
| 2026-05-07 18:42 | 48.82454 | 11.51120 | 15488 ft | 358 kts | 348° |
| 2026-05-07 18:42 | 48.84926 | 11.50570 | 16145 ft | 360 kts | 348° |
| 2026-05-07 18:43 | 48.87373 | 11.50022 | 16791 ft | 363 kts | 348° |
| 2026-05-07 18:43 | 48.89921 | 11.49453 | 17453 ft | 365 kts | 348° |
| 2026-05-07 18:43 | 48.92449 | 11.48891 | 18088 ft | 368 kts | 348° |
| 2026-05-07 18:43 | 48.94991 | 11.48327 | 18678 ft | 371 kts | 348° |
| 2026-05-07 18:44 | 48.97528 | 11.47763 | 19212 ft | 374 kts | 348° |
| 2026-05-07 18:44 | 49.00113 | 11.47187 | 19747 ft | 377 kts | 348° |
| 2026-05-07 18:44 | 49.02720 | 11.46605 | 20299 ft | 380 kts | 348° |
| 2026-05-07 18:44 | 49.05342 | 11.46015 | 20834 ft | 383 kts | 349° |
| 2026-05-07 18:45 | 49.07992 | 11.45416 | 21371 ft | 386 kts | 348° |
| 2026-05-07 18:45 | 49.10666 | 11.44812 | 21917 ft | 389 kts | 349° |
| 2026-05-07 18:45 | 49.13355 | 11.44208 | 22457 ft | 392 kts | 349° |
| 2026-05-07 18:45 | 49.16074 | 11.43599 | 22973 ft | 395 kts | 349° |
| 2026-05-07 18:46 | 49.18805 | 11.42986 | 23487 ft | 398 kts | 349° |
| 2026-05-07 18:46 | 49.21559 | 11.42366 | 23908 ft | 401 kts | 349° |
| 2026-05-07 18:46 | 49.24319 | 11.41744 | 24321 ft | 404 kts | 349° |
| 2026-05-07 18:46 | 49.27116 | 11.41114 | 24738 ft | 406 kts | 349° |
| 2026-05-07 18:47 | 49.29922 | 11.40479 | 25141 ft | 408 kts | 349° |
| 2026-05-07 18:47 | 49.32734 | 11.39840 | 25537 ft | 410 kts | 349° |
| 2026-05-07 18:47 | 49.35565 | 11.39198 | 25917 ft | 412 kts | 349° |
| 2026-05-07 18:47 | 49.38400 | 11.38555 | 26290 ft | 414 kts | 349° |
| 2026-05-07 18:48 | 49.41259 | 11.37906 | 26680 ft | 416 kts | 349° |
| 2026-05-07 18:48 | 49.44122 | 11.37255 | 27047 ft | 417 kts | 349° |
| 2026-05-07 18:48 | 49.47007 | 11.36599 | 27415 ft | 419 kts | 349° |
| 2026-05-07 18:48 | 49.49901 | 11.35941 | 27764 ft | 421 kts | 349° |
| 2026-05-07 18:49 | 49.52808 | 11.35274 | 28110 ft | 423 kts | 349° |
| 2026-05-07 18:49 | 49.55726 | 11.34602 | 28451 ft | 425 kts | 349° |
| 2026-05-07 18:49 | 49.58663 | 11.33928 | 28784 ft | 427 kts | 349° |
| 2026-05-07 18:49 | 49.61609 | 11.33251 | 29100 ft | 429 kts | 349° |
| 2026-05-07 18:50 | 49.64580 | 11.32567 | 29441 ft | 431 kts | 350° |
| 2026-05-07 18:50 | 49.67557 | 11.31941 | 29749 ft | 433 kts | 352° |
| 2026-05-07 18:50 | 49.70529 | 11.31487 | 29996 ft | 436 kts | 353° |
| 2026-05-07 18:50 | 49.73559 | 11.31149 | 30247 ft | 439 kts | 354° |
| 2026-05-07 18:51 | 49.76618 | 11.30868 | 30470 ft | 441 kts | 355° |
| 2026-05-07 18:51 | 49.79685 | 11.30593 | 30676 ft | 443 kts | 355° |
| 2026-05-07 18:51 | 49.82766 | 11.30294 | 30884 ft | 444 kts | 354° |
| 2026-05-07 18:51 | 49.85860 | 11.29964 | 31090 ft | 446 kts | 354° |
| 2026-05-07 18:52 | 49.88961 | 11.29608 | 31323 ft | 447 kts | 354° |
| 2026-05-07 18:52 | 49.92069 | 11.29238 | 31594 ft | 447 kts | 354° |
| 2026-05-07 18:52 | 49.95172 | 11.28864 | 31865 ft | 447 kts | 354° |
| 2026-05-07 18:52 | 49.98274 | 11.28488 | 32138 ft | 447 kts | 354° |
| 2026-05-07 18:53 | 50.01374 | 11.28112 | 32412 ft | 447 kts | 354° |
| 2026-05-07 18:53 | 50.04477 | 11.27741 | 32686 ft | 447 kts | 354° |
| 2026-05-07 18:53 | 50.07579 | 11.27374 | 32961 ft | 447 kts | 354° |
| 2026-05-07 18:53 | 50.10684 | 11.27009 | 33242 ft | 447 kts | 354° |
| 2026-05-07 18:54 | 50.13788 | 11.26644 | 33533 ft | 447 kts | 354° |
| 2026-05-07 18:54 | 50.16891 | 11.26275 | 33815 ft | 447 kts | 354° |
| 2026-05-07 18:54 | 50.19988 | 11.25904 | 34082 ft | 447 kts | 354° |
| 2026-05-07 18:54 | 50.23092 | 11.25531 | 34300 ft | 447 kts | 354° |
| 2026-05-07 18:55 | 50.26199 | 11.25157 | 34531 ft | 448 kts | 354° |
| 2026-05-07 18:55 | 50.29307 | 11.24789 | 34727 ft | 448 kts | 354° |
| 2026-05-07 18:55 | 50.32367 | 11.24426 | 34928 ft | 449 kts | 354° |
| 2026-05-07 18:55 | 50.35491 | 11.24051 | 35128 ft | 449 kts | 354° |
| 2026-05-07 18:56 | 50.38610 | 11.23675 | 35309 ft | 450 kts | 354° |
| 2026-05-07 18:56 | 50.41738 | 11.23302 | 35492 ft | 451 kts | 354° |
| 2026-05-07 18:56 | 50.44865 | 11.22929 | 35683 ft | 451 kts | 354° |
| 2026-05-07 18:56 | 50.48000 | 11.22553 | 35862 ft | 452 kts | 354° |
| 2026-05-07 18:57 | 50.51135 | 11.22175 | 36028 ft | 453 kts | 354° |
| 2026-05-07 18:57 | 50.57403 | 11.21422 | 36090 ft | 451 kts | 354° |
| 2026-05-07 18:58 | 50.63650 | 11.20670 | 36097 ft | 450 kts | 354° |
| 2026-05-07 18:58 | 50.69889 | 11.19918 | 36094 ft | 449 kts | 354° |
| 2026-05-07 18:59 | 50.76121 | 11.19155 | 36094 ft | 449 kts | 354° |
| 2026-05-07 18:59 | 50.82358 | 11.18395 | 36100 ft | 450 kts | 354° |
| 2026-05-07 19:00 | 50.87551 | 11.17755 | 36093 ft | 450 kts | 354° |
| 2026-05-07 19:00 | 50.93793 | 11.16987 | 36090 ft | 450 kts | 354° |
| 2026-05-07 19:01 | 51.01051 | 11.16099 | 36099 ft | 450 kts | 354° |
| 2026-05-07 19:01 | 51.06276 | 11.15453 | 36104 ft | 450 kts | 354° |
| 2026-05-07 19:02 | 51.12521 | 11.14669 | 36105 ft | 450 kts | 354° |
| 2026-05-07 19:02 | 51.18764 | 11.13890 | 36107 ft | 450 kts | 354° |
| 2026-05-07 19:03 | 51.25014 | 11.13115 | 36104 ft | 450 kts | 354° |
| 2026-05-07 19:03 | 51.31218 | 11.12356 | 36119 ft | 450 kts | 354° |
| 2026-05-07 19:04 | 51.37465 | 11.11578 | 36114 ft | 450 kts | 354° |
| 2026-05-07 19:04 | 51.43717 | 11.10784 | 36115 ft | 450 kts | 354° |
| 2026-05-07 19:05 | 51.49967 | 11.10001 | 36126 ft | 450 kts | 354° |
| 2026-05-07 19:05 | 51.56212 | 11.09216 | 36132 ft | 450 kts | 354° |
| 2026-05-07 19:06 | 51.62466 | 11.08431 | 36126 ft | 450 kts | 354° |
| 2026-05-07 19:06 | 51.71833 | 11.07241 | 36126 ft | 450 kts | 354° |
| 2026-05-07 19:07 | 51.78074 | 11.06443 | 36134 ft | 450 kts | 354° |
| 2026-05-07 19:07 | 51.84316 | 11.05644 | 36131 ft | 450 kts | 354° |
| 2026-05-07 19:08 | 51.90545 | 11.04704 | 36073 ft | 450 kts | 352° |
| 2026-05-07 19:08 | 51.93659 | 11.04067 | 35584 ft | 450 kts | 351° |
| 2026-05-07 19:08 | 51.96757 | 11.03362 | 35099 ft | 448 kts | 351° |
| 2026-05-07 19:09 | 51.99833 | 11.02633 | 34629 ft | 446 kts | 351° |
| 2026-05-07 19:09 | 52.02910 | 11.01910 | 34163 ft | 445 kts | 351° |
| 2026-05-07 19:09 | 52.05935 | 11.01225 | 33611 ft | 444 kts | 352° |
| 2026-05-07 19:09 | 52.08988 | 11.00561 | 33033 ft | 441 kts | 352° |
| 2026-05-07 19:10 | 52.12056 | 10.99909 | 32456 ft | 436 kts | 352° |
| 2026-05-07 19:10 | 52.15013 | 10.99288 | 31910 ft | 432 kts | 352° |
| 2026-05-07 19:10 | 52.18016 | 10.98659 | 31360 ft | 427 kts | 352° |
| 2026-05-07 19:10 | 52.20912 | 10.98045 | 30836 ft | 423 kts | 352° |
| 2026-05-07 19:11 | 52.23820 | 10.97420 | 30316 ft | 419 kts | 352° |
| 2026-05-07 19:11 | 52.26703 | 10.96795 | 29732 ft | 415 kts | 352° |
| 2026-05-07 19:11 | 52.29552 | 10.96174 | 29131 ft | 411 kts | 352° |
| 2026-05-07 19:11 | 52.32377 | 10.95558 | 28542 ft | 408 kts | 352° |
| 2026-05-07 19:12 | 52.35182 | 10.94947 | 27962 ft | 405 kts | 352° |
| 2026-05-07 19:12 | 52.37962 | 10.94342 | 27398 ft | 401 kts | 352° |
| 2026-05-07 19:12 | 52.40720 | 10.93743 | 26844 ft | 399 kts | 352° |
| 2026-05-07 19:12 | 52.43462 | 10.93146 | 26302 ft | 396 kts | 352° |
| 2026-05-07 19:13 | 52.46182 | 10.92553 | 25772 ft | 393 kts | 351° |
| 2026-05-07 19:13 | 52.48889 | 10.91962 | 25278 ft | 390 kts | 351° |
| 2026-05-07 19:13 | 52.51563 | 10.91378 | 25054 ft | 387 kts | 351° |
| 2026-05-07 19:13 | 52.54193 | 10.90802 | 24742 ft | 385 kts | 351° |
| 2026-05-07 19:14 | 52.56844 | 10.90223 | 24427 ft | 384 kts | 351° |
| 2026-05-07 19:14 | 52.59487 | 10.89649 | 24124 ft | 382 kts | 351° |
| 2026-05-07 19:14 | 52.62114 | 10.89078 | 23818 ft | 381 kts | 351° |
| 2026-05-07 19:14 | 52.64735 | 10.88504 | 23476 ft | 379 kts | 351° |
| 2026-05-07 19:15 | 52.67344 | 10.87929 | 23121 ft | 377 kts | 351° |
| 2026-05-07 19:15 | 52.69944 | 10.87355 | 22758 ft | 376 kts | 351° |
| 2026-05-07 19:15 | 52.72533 | 10.86784 | 22410 ft | 374 kts | 351° |
| 2026-05-07 19:15 | 52.75107 | 10.86214 | 22061 ft | 372 kts | 351° |
| 2026-05-07 19:16 | 52.77665 | 10.85646 | 21722 ft | 370 kts | 351° |
| 2026-05-07 19:16 | 52.80208 | 10.85081 | 21379 ft | 368 kts | 351° |
| 2026-05-07 19:16 | 52.82746 | 10.84516 | 21046 ft | 367 kts | 351° |
| 2026-05-07 19:16 | 52.85270 | 10.83965 | 20711 ft | 365 kts | 352° |
| 2026-05-07 19:17 | 52.87783 | 10.83445 | 20379 ft | 363 kts | 352° |
| 2026-05-07 19:17 | 52.90289 | 10.82941 | 20054 ft | 362 kts | 352° |
| 2026-05-07 19:17 | 52.92782 | 10.82449 | 19731 ft | 360 kts | 352° |
| 2026-05-07 19:17 | 52.95264 | 10.81961 | 19411 ft | 358 kts | 352° |
| 2026-05-07 19:18 | 52.97734 | 10.81470 | 19100 ft | 357 kts | 352° |
| 2026-05-07 19:18 | 53.00161 | 10.80982 | 18792 ft | 355 kts | 352° |
| 2026-05-07 19:18 | 53.02640 | 10.80479 | 18477 ft | 354 kts | 352° |
| 2026-05-07 19:18 | 53.05049 | 10.79986 | 18129 ft | 352 kts | 352° |
| 2026-05-07 19:19 | 53.07507 | 10.79482 | 17784 ft | 350 kts | 352° |
| 2026-05-07 19:19 | 53.09889 | 10.78991 | 17439 ft | 348 kts | 352° |
| 2026-05-07 19:19 | 53.12290 | 10.78494 | 17093 ft | 347 kts | 352° |
| 2026-05-07 19:19 | 53.14677 | 10.78003 | 16761 ft | 345 kts | 352° |
| 2026-05-07 19:20 | 53.17052 | 10.77518 | 16413 ft | 343 kts | 352° |
| 2026-05-07 19:20 | 53.19417 | 10.77032 | 16078 ft | 342 kts | 352° |
| 2026-05-07 19:20 | 53.21773 | 10.76542 | 15746 ft | 340 kts | 352° |
| 2026-05-07 19:20 | 53.24111 | 10.76052 | 15425 ft | 338 kts | 352° |
| 2026-05-07 19:21 | 53.26446 | 10.75564 | 15102 ft | 337 kts | 352° |
| 2026-05-07 19:21 | 53.28763 | 10.75081 | 14779 ft | 335 kts | 352° |
| 2026-05-07 19:21 | 53.31064 | 10.74601 | 14456 ft | 333 kts | 352° |
| 2026-05-07 19:21 | 53.33364 | 10.74121 | 14150 ft | 332 kts | 353° |
| 2026-05-07 19:22 | 53.35648 | 10.73651 | 13832 ft | 330 kts | 352° |
| 2026-05-07 19:22 | 53.37924 | 10.73185 | 13479 ft | 328 kts | 353° |
| 2026-05-07 19:22 | 53.40187 | 10.72721 | 13127 ft | 327 kts | 353° |
| 2026-05-07 19:22 | 53.42436 | 10.72255 | 12786 ft | 325 kts | 353° |
| 2026-05-07 19:23 | 53.44672 | 10.71792 | 12443 ft | 323 kts | 353° |
| 2026-05-07 19:23 | 53.46897 | 10.71333 | 12110 ft | 321 kts | 353° |
| 2026-05-07 19:23 | 53.49090 | 10.70879 | 11787 ft | 320 kts | 353° |
| 2026-05-07 19:23 | 53.51313 | 10.70414 | 11448 ft | 318 kts | 353° |
| 2026-05-07 19:24 | 53.53504 | 10.69952 | 11121 ft | 317 kts | 353° |
| 2026-05-07 19:24 | 53.55682 | 10.69489 | 10800 ft | 315 kts | 353° |
| 2026-05-07 19:24 | 53.57845 | 10.68954 | 10484 ft | 314 kts | 346° |
| 2026-05-07 19:24 | 53.59813 | 10.67585 | 10183 ft | 312 kts | 327° |
| 2026-05-07 19:25 | 53.61402 | 10.65110 | 10120 ft | 300 kts | 306° |
| 2026-05-07 19:25 | 53.62304 | 10.62078 | 10126 ft | 292 kts | 285° |
| 2026-05-07 19:25 | 53.62525 | 10.58706 | 10130 ft | 291 kts | 265° |
| 2026-05-07 19:25 | 53.62069 | 10.55398 | 10135 ft | 292 kts | 251° |
| 2026-05-07 19:26 | 53.61433 | 10.52152 | 10133 ft | 292 kts | 251° |
| 2026-05-07 19:26 | 53.60797 | 10.48908 | 10128 ft | 292 kts | 251° |
| 2026-05-07 19:26 | 53.60161 | 10.45659 | 10127 ft | 292 kts | 252° |
| 2026-05-07 19:26 | 53.59528 | 10.42412 | 10126 ft | 292 kts | 252° |
| 2026-05-07 19:27 | 53.58896 | 10.39168 | 10123 ft | 291 kts | 251° |
| 2026-05-07 19:27 | 53.58265 | 10.35938 | 10123 ft | 292 kts | 251° |
| 2026-05-07 19:27 | 53.57633 | 10.32698 | 10125 ft | 291 kts | 251° |
| 2026-05-07 19:27 | 53.57000 | 10.29456 | 10130 ft | 292 kts | 251° |
| 2026-05-07 19:28 | 53.56363 | 10.26197 | 10132 ft | 292 kts | 252° |
| 2026-05-07 19:28 | 53.55736 | 10.22988 | 10133 ft | 281 kts | 251° |
| 2026-05-07 19:28 | 53.55123 | 10.19868 | 9566 ft | 282 kts | 252° |
| 2026-05-07 19:28 | 53.54517 | 10.16798 | 9119 ft | 272 kts | 252° |
| 2026-05-07 19:29 | 53.53932 | 10.13841 | 8715 ft | 261 kts | 252° |
| 2026-05-07 19:29 | 53.53368 | 10.10992 | 8323 ft | 254 kts | 252° |
| 2026-05-07 19:29 | 53.52815 | 10.08216 | 7810 ft | 251 kts | 252° |
| 2026-05-07 19:29 | 53.52261 | 10.05443 | 7304 ft | 248 kts | 252° |
| 2026-05-07 19:30 | 53.51713 | 10.02702 | 6802 ft | 247 kts | 252° |
| 2026-05-07 19:30 | 53.51171 | 9.99980 | 6285 ft | 245 kts | 252° |
| 2026-05-07 19:30 | 53.50640 | 9.97303 | 5770 ft | 244 kts | 251° |
| 2026-05-07 19:30 | 53.49994 | 9.94686 | 5380 ft | 243 kts | 239° |
| 2026-05-07 19:31 | 53.49027 | 9.92373 | 5048 ft | 240 kts | 228° |
| 2026-05-07 19:31 | 53.47951 | 9.90237 | 5008 ft | 240 kts | 228° |
| 2026-05-07 19:31 | 53.46876 | 9.88082 | 5010 ft | 241 kts | 229° |
| 2026-05-07 19:31 | 53.45801 | 9.85920 | 5010 ft | 241 kts | 229° |
| 2026-05-07 19:32 | 53.44728 | 9.83760 | 5010 ft | 241 kts | 229° |
| 2026-05-07 19:32 | 53.43650 | 9.81592 | 4988 ft | 241 kts | 229° |
| 2026-05-07 19:32 | 53.42573 | 9.79433 | 4988 ft | 241 kts | 229° |
| 2026-05-07 19:32 | 53.41489 | 9.77266 | 4764 ft | 242 kts | 228° |
| 2026-05-07 19:33 | 53.40415 | 9.75118 | 4518 ft | 240 kts | 228° |
| 2026-05-07 19:33 | 53.39346 | 9.72978 | 4257 ft | 237 kts | 228° |
| 2026-05-07 19:33 | 53.38305 | 9.70898 | 3990 ft | 229 kts | 228° |
| 2026-05-07 19:33 | 53.37313 | 9.68915 | 3730 ft | 221 kts | 228° |
| 2026-05-07 19:34 | 53.36321 | 9.66934 | 3473 ft | 217 kts | 228° |
| 2026-05-07 19:34 | 53.35515 | 9.64818 | 3214 ft | 217 kts | 253° |
| 2026-05-07 19:34 | 53.35508 | 9.62368 | 3028 ft | 216 kts | 290° |
| 2026-05-07 19:34 | 53.36341 | 9.60336 | 2980 ft | 213 kts | 324° |
| 2026-05-07 19:35 | 53.37678 | 9.59445 | 2984 ft | 207 kts | 1° |
| 2026-05-07 19:35 | 53.39046 | 9.59985 | 2996 ft | 203 kts | 28° |
| 2026-05-07 19:35 | 53.40278 | 9.61123 | 2986 ft | 202 kts | 33° |
| 2026-05-07 19:35 | 53.41485 | 9.62346 | 2987 ft | 202 kts | 34° |
| 2026-05-07 19:36 | 53.42685 | 9.63575 | 2987 ft | 202 kts | 34° |
| 2026-05-07 19:36 | 53.43885 | 9.64811 | 3006 ft | 202 kts | 34° |
| 2026-05-07 19:36 | 53.45083 | 9.66049 | 3006 ft | 200 kts | 34° |
| 2026-05-07 19:36 | 53.46234 | 9.67233 | 3011 ft | 188 kts | 34° |
| 2026-05-07 19:37 | 53.47336 | 9.68365 | 3027 ft | 184 kts | 34° |
| 2026-05-07 19:37 | 53.48365 | 9.69600 | 3006 ft | 180 kts | 46° |
| 2026-05-07 19:37 | 53.49223 | 9.71120 | 3005 ft | 176 kts | 51° |
| 2026-05-07 19:37 | 53.50013 | 9.72647 | 3007 ft | 171 kts | 52° |
| 2026-05-07 19:38 | 53.50779 | 9.74166 | 3010 ft | 169 kts | 52° |
| 2026-05-07 19:38 | 53.51528 | 9.75660 | 3010 ft | 169 kts | 52° |
| 2026-05-07 19:38 | 53.52284 | 9.77174 | 2975 ft | 169 kts | 52° |
| 2026-05-07 19:38 | 53.53039 | 9.78687 | 2821 ft | 169 kts | 52° |
| 2026-05-07 19:39 | 53.53794 | 9.80201 | 2603 ft | 168 kts | 52° |
| 2026-05-07 19:39 | 53.54540 | 9.81698 | 2389 ft | 167 kts | 52° |
| 2026-05-07 19:39 | 53.55283 | 9.83191 | 2165 ft | 166 kts | 53° |
| 2026-05-07 19:39 | 53.55773 | 9.84175 | 2015 ft | 165 kts | 52° |
| 2026-05-07 19:40 | 53.56755 | 9.86151 | 1716 ft | 162 kts | 52° |
| 2026-05-07 19:40 | 53.57437 | 9.87520 | 1505 ft | 145 kts | 52° |
| 2026-05-07 19:40 | 53.58063 | 9.88780 | 1307 ft | 136 kts | 52° |
| 2026-05-07 19:40 | 53.58664 | 9.90000 | 1093 ft | 134 kts | 52° |
| 2026-05-07 19:41 | 53.59250 | 9.91177 | 923 ft | 130 kts | 51° |
| 2026-05-07 19:41 | 53.59822 | 9.92330 | 746 ft | 131 kts | 51° |
| 2026-05-07 19:41 | 53.60404 | 9.93507 | 582 ft | 131 kts | 51° |
| 2026-05-07 19:41 | 53.60988 | 9.94689 | 390 ft | 131 kts | 51° |
| 2026-05-07 19:42 | 53.61576 | 9.95857 | 211 ft | 130 kts | 50° |
| 2026-05-07 19:42 | 53.62148 | 9.97023 | 61 ft | 126 kts | 51° |
| 2026-05-07 19:42 | 53.62640 | 9.98017 | 49 ft | 91 kts | 50° |
| 2026-05-07 19:42 | 53.62934 | 9.98615 | 49 ft | 41 kts | 50° |
| 2026-05-07 19:43 | 53.63066 | 9.98883 | 50 ft | 26 kts | 50° |
| 2026-05-07 19:43 | 53.63180 | 9.99113 | 51 ft | 25 kts | 50° |
| 2026-05-07 19:43 | 53.63272 | 9.99326 | 52 ft | 15 kts | 65° |
| 2026-05-07 19:43 | 53.63291 | 9.99477 | 50 ft | 8 kts | 89° |
| 2026-05-07 19:44 | 53.63286 | 9.99566 | 50 ft | 7 kts | 99° |
| 2026-05-07 19:44 | 53.63282 | 9.99610 | 50 ft | 0 kts | 99° |